Time;durP1;ratioP1;P1;durP2;ratioP2;P2;SDS_P1;SDS_P2;PMS_P1;PMS_P2;Temp;Humidity;BMP_temperature;BMP_pressure;BME280_temperature;BME280_humidity;BME280_pressure;Samples;Min_cycle;Max_cycle;Signal;HPM_P1;HPM_P2
2022/08/23 00:01:50;;;;;;;8.55;4.60;;;;;;;;;;5031422;28;20662;-73
2022/08/23 00:04:20;;;;;;;7.88;5.25;;;;;;;;;;5047324;28;20178;-73
2022/08/23 00:06:47;;;;;;;7.53;5.55;;;;;;;;;;5029276;28;20205;-73
2022/08/23 00:09:12;;;;;;;8.05;4.72;;;;;;;;;;5029090;28;20170;-74
2022/08/23 00:11:42;;;;;;;8.50;5.00;;;;;;;;;;5030559;28;20191;-73
2022/08/23 00:14:09;;;;;;;9.07;5.07;;;;;;;;;;5029352;28;20174;-73
2022/08/23 00:16:35;;;;;;;6.25;4.18;;;;;;;;;;5028306;28;20221;-73
2022/08/23 00:19:01;;;;;;;8.65;4.45;;;;;;;;;;5029859;28;20231;-73
2022/08/23 00:21:27;;;;;;;5.15;4.10;;;;;;;;;;5025835;28;20264;-73
2022/08/23 00:23:52;;;;;;;6.07;4.40;;;;;;;;;;5030387;28;20281;-73
2022/08/23 00:26:19;;;;;;;8.10;4.90;;;;;;;;;;5027819;28;20213;-74
2022/08/23 00:28:44;;;;;;;7.70;4.10;;;;;;;;;;5029783;28;20424;-73
2022/08/23 00:31:09;;;;;;;6.05;4.35;;;;;;;;;;5029365;28;20202;-73
2022/08/23 00:33:35;;;;;;;7.45;4.47;;;;;;;;;;5029341;28;20202;-73
2022/08/23 00:36:00;;;;;;;6.18;4.22;;;;;;;;;;5028024;28;20192;-73
2022/08/23 00:38:25;;;;;;;12.25;5.43;;;;;;;;;;5030348;28;20533;-73
2022/08/23 00:40:51;;;;;;;8.57;4.60;;;;;;;;;;5028282;28;20303;-73
2022/08/23 00:49:07;;;;;;;6.00;4.10;;;;;;;;;;5030175;28;20232;-74
2022/08/23 00:51:35;;;;;;;5.97;4.45;;;;;;;;;;5026018;28;20202;-73
2022/08/23 00:54:01;;;;;;;7.22;3.90;;;;;;;;;;5027621;28;20652;-73
2022/08/23 00:56:29;;;;;;;8.50;4.25;;;;;;;;;;5026175;28;20186;-73
2022/08/23 00:58:54;;;;;;;7.47;4.57;;;;;;;;;;5025749;28;20170;-73
2022/08/23 01:01:19;;;;;;;6.97;3.77;;;;;;;;;;5028819;28;20205;-73
2022/08/23 01:03:48;;;;;;;5.93;4.00;;;;;;;;;;5027635;28;20463;-73
2022/08/23 01:06:18;;;;;;;5.15;4.25;;;;;;;;;;5022258;28;20175;-73
2022/08/23 01:08:45;;;;;;;6.28;3.95;;;;;;;;;;5022249;28;20210;-73
2022/08/23 01:11:15;;;;;;;5.22;3.80;;;;;;;;;;5027107;28;20664;-74
2022/08/23 01:13:53;;;;;;;8.55;4.03;;;;;;;;;;5026807;28;20174;-74
2022/08/23 01:16:32;;;;;;;6.43;4.35;;;;;;;;;;5026455;28;20202;-74
2022/08/23 01:18:58;;;;;;;7.15;4.03;;;;;;;;;;5030014;28;20174;-74
2022/08/23 01:21:32;;;;;;;5.57;4.15;;;;;;;;;;5029674;28;20209;-74
2022/08/23 01:23:58;;;;;;;8.00;4.82;;;;;;;;;;5028113;28;20197;-74
2022/08/23 01:26:24;;;;;;;5.35;3.65;;;;;;;;;;5027619;28;20209;-74
2022/08/23 01:28:50;;;;;;;5.57;3.72;;;;;;;;;;5028745;28;20185;-74
2022/08/23 01:31:17;;;;;;;6.60;4.90;;;;;;;;;;5029279;28;20195;-74
2022/08/23 01:33:44;;;;;;;7.20;4.50;;;;;;;;;;5028909;28;20185;-73
2022/08/23 01:36:10;;;;;;;7.97;4.50;;;;;;;;;;5029608;28;20550;-73
2022/08/23 01:38:36;;;;;;;12.70;5.32;;;;;;;;;;5032704;28;20660;-73
2022/08/23 01:41:01;;;;;;;7.28;6.43;;;;;;;;;;5032039;28;20194;-73
2022/08/23 01:43:26;;;;;;;7.85;6.28;;;;;;;;;;5034202;28;20671;-74
2022/08/23 01:45:52;;;;;;;9.13;6.03;;;;;;;;;;5036996;28;20527;-73
2022/08/23 01:48:17;;;;;;;7.38;5.82;;;;;;;;;;5038433;28;20300;-73
2022/08/23 01:50:43;;;;;;;10.13;7.20;;;;;;;;;;5029731;28;20190;-74
2022/08/23 01:53:08;;;;;;;13.15;7.07;;;;;;;;;;5037846;28;20211;-73
2022/08/23 01:55:34;;;;;;;12.45;7.20;;;;;;;;;;5032914;28;20190;-74
2022/08/23 01:57:59;;;;;;;7.72;6.72;;;;;;;;;;5034612;28;20634;-74
2022/08/23 02:00:29;;;;;;;10.18;6.75;;;;;;;;;;5033491;28;20206;-73
2022/08/23 02:02:55;;;;;;;8.65;7.22;;;;;;;;;;5034291;28;20206;-74
2022/08/23 02:05:21;;;;;;;10.02;6.60;;;;;;;;;;5035901;28;20178;-74
2022/08/23 02:07:46;;;;;;;7.75;6.22;;;;;;;;;;5027705;28;20171;-73
2022/08/23 02:10:11;;;;;;;11.13;6.93;;;;;;;;;;5026507;28;20251;-74
2022/08/23 02:12:37;;;;;;;9.20;7.00;;;;;;;;;;5029979;28;20186;-74
2022/08/23 02:15:03;;;;;;;9.40;6.57;;;;;;;;;;5032644;28;20189;-73
2022/08/23 02:17:28;;;;;;;9.05;6.53;;;;;;;;;;5032467;28;20547;-74
2022/08/23 02:19:54;;;;;;;6.90;5.83;;;;;;;;;;5033184;28;20197;-74
2022/08/23 02:22:20;;;;;;;7.30;6.60;;;;;;;;;;5029994;28;20509;-73
2022/08/23 02:24:45;;;;;;;8.63;6.85;;;;;;;;;;5029981;28;20589;-74
2022/08/23 02:27:14;;;;;;;6.53;5.70;;;;;;;;;;5029874;28;20671;-74
2022/08/23 02:29:40;;;;;;;7.35;6.43;;;;;;;;;;5031180;28;20663;-73
2022/08/23 02:32:05;;;;;;;7.68;6.47;;;;;;;;;;5031821;28;20570;-73
2022/08/23 02:34:30;;;;;;;9.80;6.95;;;;;;;;;;5032719;28;20204;-74
2022/08/23 02:36:56;;;;;;;8.45;7.05;;;;;;;;;;5030694;28;20581;-74
2022/08/23 02:39:21;;;;;;;11.25;7.03;;;;;;;;;;5033841;28;20636;-73
2022/08/23 02:41:46;;;;;;;9.75;7.43;;;;;;;;;;5031466;28;20193;-73
2022/08/23 02:44:12;;;;;;;10.05;7.45;;;;;;;;;;5032446;28;20258;-73
2022/08/23 02:46:37;;;;;;;7.57;6.55;;;;;;;;;;5031664;28;20194;-74
2022/08/23 02:49:03;;;;;;;8.02;6.90;;;;;;;;;;5032725;28;20179;-73
2022/08/23 02:51:28;;;;;;;10.05;6.50;;;;;;;;;;5028652;28;20302;-74
2022/08/23 02:53:53;;;;;;;13.98;7.20;;;;;;;;;;5035266;28;20225;-74
2022/08/23 02:56:19;;;;;;;10.52;6.97;;;;;;;;;;5035689;28;20187;-74
2022/08/23 02:58:45;;;;;;;7.82;7.03;;;;;;;;;;5033894;28;20611;-73
2022/08/23 03:01:15;;;;;;;6.70;6.03;;;;;;;;;;5032048;28;20932;-73
2022/08/23 03:03:41;;;;;;;10.98;7.57;;;;;;;;;;5033085;28;20205;-73
2022/08/23 03:06:06;;;;;;;9.27;7.22;;;;;;;;;;5031896;28;20170;-74
2022/08/23 03:08:31;;;;;;;11.93;6.72;;;;;;;;;;5033966;28;20190;-73
2022/08/23 03:10:56;;;;;;;7.53;6.82;;;;;;;;;;5024094;28;20289;-74
2022/08/23 03:13:21;;;;;;;8.67;6.63;;;;;;;;;;5028695;28;20182;-73
2022/08/23 03:15:47;;;;;;;10.25;7.13;;;;;;;;;;5031200;28;20439;-74
2022/08/23 03:18:12;;;;;;;8.35;7.40;;;;;;;;;;5033438;28;20224;-73
2022/08/23 03:20:42;;;;;;;9.10;6.90;;;;;;;;;;5022995;28;20698;-73
2022/08/23 03:23:09;;;;;;;10.32;6.97;;;;;;;;;;5045864;28;20706;-74
2022/08/23 03:25:34;;;;;;;9.30;7.22;;;;;;;;;;5031751;28;20174;-73
2022/08/23 03:28:04;;;;;;;10.15;6.70;;;;;;;;;;5035994;28;20174;-74
2022/08/23 03:30:29;;;;;;;12.13;6.72;;;;;;;;;;5032744;28;20207;-74
2022/08/23 03:32:54;;;;;;;11.00;7.53;;;;;;;;;;5034898;28;20640;-73
2022/08/23 03:35:19;;;;;;;6.88;6.18;;;;;;;;;;5030623;28;20485;-73
2022/08/23 03:37:44;;;;;;;8.90;7.73;;;;;;;;;;5031642;28;20264;-73
2022/08/23 03:40:10;;;;;;;9.02;6.78;;;;;;;;;;5030281;28;20466;-73
2022/08/23 03:42:35;;;;;;;11.38;7.82;;;;;;;;;;5034583;28;20202;-73
2022/08/23 03:45:00;;;;;;;9.65;8.18;;;;;;;;;;5032487;28;20169;-74
2022/08/23 03:47:26;;;;;;;8.03;6.60;;;;;;;;;;5031555;28;20197;-73
2022/08/23 03:49:51;;;;;;;9.07;7.70;;;;;;;;;;5023232;28;20482;-73
2022/08/23 03:52:16;;;;;;;9.85;7.45;;;;;;;;;;5028660;28;20238;-73
2022/08/23 03:54:41;;;;;;;9.02;7.45;;;;;;;;;;5031789;28;20651;-73
2022/08/23 03:57:08;;;;;;;11.00;7.37;;;;;;;;;;5030256;28;21743;-73
2022/08/23 03:59:34;;;;;;;9.02;6.72;;;;;;;;;;5028136;28;20435;-73
2022/08/23 04:01:59;;;;;;;9.38;7.38;;;;;;;;;;5031633;28;20264;-74
2022/08/23 04:04:25;;;;;;;8.32;7.25;;;;;;;;;;5029133;28;20210;-73
2022/08/23 04:06:50;;;;;;;8.65;6.95;;;;;;;;;;5027523;28;20178;-74
2022/08/23 04:09:15;;;;;;;6.70;5.97;;;;;;;;;;5032919;28;20277;-73
2022/08/23 04:11:41;;;;;;;7.90;6.28;;;;;;;;;;5029296;28;20206;-74
2022/08/23 04:14:07;;;;;;;9.43;7.15;;;;;;;;;;5030867;28;20265;-73
2022/08/23 04:16:36;;;;;;;8.48;7.13;;;;;;;;;;5032018;28;20586;-73
2022/08/23 04:19:05;;;;;;;7.72;6.93;;;;;;;;;;5030025;28;20547;-73
2022/08/23 04:21:30;;;;;;;9.95;6.75;;;;;;;;;;5031107;28;20206;-73
2022/08/23 04:23:56;;;;;;;7.80;7.00;;;;;;;;;;5046313;28;20206;-73
2022/08/23 04:26:21;;;;;;;9.75;6.22;;;;;;;;;;5030736;28;20178;-73
2022/08/23 04:28:46;;;;;;;6.40;5.78;;;;;;;;;;5029575;28;20319;-73
2022/08/23 04:31:11;;;;;;;6.68;5.93;;;;;;;;;;5028963;28;20252;-74
2022/08/23 04:33:37;;;;;;;6.65;5.82;;;;;;;;;;5031069;28;20814;-73
2022/08/23 04:36:03;;;;;;;9.27;6.20;;;;;;;;;;5030522;28;20186;-73
2022/08/23 04:38:28;;;;;;;7.70;6.22;;;;;;;;;;5032237;28;20269;-73
2022/08/23 04:43:38;;;;;;;8.25;6.57;;;;;;;;;;5035992;28;20240;-73
2022/08/23 04:46:04;;;;;;;8.05;5.85;;;;;;;;;;5033235;28;20563;-73
2022/08/23 04:48:29;;;;;;;7.47;6.32;;;;;;;;;;5032200;28;20209;-73
2022/08/23 04:50:55;;;;;;;10.03;6.70;;;;;;;;;;5026322;28;20202;-74
2022/08/23 04:53:20;;;;;;;10.82;6.95;;;;;;;;;;5022291;28;20438;-73
2022/08/23 04:55:45;;;;;;;10.40;7.67;;;;;;;;;;5026110;28;20173;-73
2022/08/23 04:58:10;;;;;;;8.85;6.72;;;;;;;;;;5031423;28;20431;-74
2022/08/23 05:00:36;;;;;;;9.02;7.97;;;;;;;;;;5028437;28;20263;-74
2022/08/23 05:03:01;;;;;;;11.10;7.55;;;;;;;;;;5030685;28;20201;-74
2022/08/23 05:05:26;;;;;;;9.23;7.97;;;;;;;;;;5027845;28;20174;-74
2022/08/23 05:07:52;;;;;;;9.70;7.88;;;;;;;;;;5027720;28;20174;-73
2022/08/23 05:10:17;;;;;;;9.80;8.20;;;;;;;;;;5029778;28;20280;-74
2022/08/23 05:12:42;;;;;;;9.23;7.93;;;;;;;;;;5029369;28;20282;-74
2022/08/23 05:15:08;;;;;;;8.10;7.30;;;;;;;;;;5027809;28;20574;-75
2022/08/23 05:17:33;;;;;;;11.68;8.32;;;;;;;;;;5031307;28;20178;-74
2022/08/23 05:19:59;;;;;;;11.30;8.50;;;;;;;;;;5031557;28;20206;-74
2022/08/23 05:22:24;;;;;;;13.95;7.85;;;;;;;;;;5032442;28;20206;-75
2022/08/23 05:24:49;;;;;;;11.30;7.60;;;;;;;;;;5031557;28;20671;-74
2022/08/23 05:27:14;;;;;;;10.53;7.77;;;;;;;;;;5030028;28;20427;-75
2022/08/23 05:29:39;;;;;;;11.52;7.85;;;;;;;;;;5029844;28;20794;-74
2022/08/23 05:32:05;;;;;;;10.37;8.20;;;;;;;;;;5028919;28;20667;-75
2022/08/23 05:34:30;;;;;;;9.57;8.20;;;;;;;;;;5028181;28;20455;-75
2022/08/23 05:36:55;;;;;;;11.40;8.35;;;;;;;;;;5034974;28;20190;-75
2022/08/23 05:39:20;;;;;;;11.55;8.02;;;;;;;;;;5028497;28;20186;-75
2022/08/23 05:41:46;;;;;;;8.57;7.28;;;;;;;;;;5027436;28;20221;-74
2022/08/23 05:44:11;;;;;;;8.73;7.18;;;;;;;;;;5029073;28;20261;-75
2022/08/23 05:46:37;;;;;;;9.38;8.07;;;;;;;;;;5029763;28;20825;-74
2022/08/23 05:49:02;;;;;;;11.38;8.13;;;;;;;;;;5030372;28;20600;-74
2022/08/23 05:51:32;;;;;;;9.85;7.30;;;;;;;;;;5029899;28;20703;-75
2022/08/23 05:53:59;;;;;;;12.02;7.13;;;;;;;;;;5024656;28;20186;-74
2022/08/23 05:56:30;;;;;;;13.25;9.18;;;;;;;;;;5025957;28;20209;-74
2022/08/23 05:58:57;;;;;;;11.88;8.82;;;;;;;;;;5044569;28;20182;-74
2022/08/23 06:01:22;;;;;;;13.25;9.10;;;;;;;;;;5022742;28;20888;-74
2022/08/23 06:03:48;;;;;;;12.57;8.93;;;;;;;;;;5027213;28;20213;-74
2022/08/23 06:06:14;;;;;;;10.05;8.07;;;;;;;;;;5030012;28;20800;-74
2022/08/23 06:08:40;;;;;;;10.25;9.18;;;;;;;;;;5028470;28;20212;-74
2022/08/23 06:11:07;;;;;;;10.20;8.13;;;;;;;;;;5030651;28;20245;-74
2022/08/23 06:13:33;;;;;;;13.18;8.85;;;;;;;;;;5028879;28;20663;-74
2022/08/23 06:15:58;;;;;;;12.65;8.55;;;;;;;;;;5030771;28;20190;-74
2022/08/23 06:18:24;;;;;;;13.02;9.18;;;;;;;;;;5030036;28;20205;-74
2022/08/23 06:21:00;;;;;;;12.30;9.05;;;;;;;;;;5032509;28;20204;-75
2022/08/23 06:23:25;;;;;;;16.05;9.00;;;;;;;;;;5034894;28;20202;-74
2022/08/23 06:25:50;;;;;;;12.27;9.02;;;;;;;;;;5037076;28;20711;-74
2022/08/23 06:28:16;;;;;;;14.03;10.37;;;;;;;;;;5033395;28;20182;-74
2022/08/23 06:30:41;;;;;;;15.43;9.25;;;;;;;;;;5033878;28;20415;-74
2022/08/23 06:33:06;;;;;;;14.03;9.00;;;;;;;;;;5037235;28;20713;-75
2022/08/23 06:35:32;;;;;;;11.05;8.35;;;;;;;;;;5033598;28;20442;-74
2022/08/23 06:37:57;;;;;;;20.67;9.27;;;;;;;;;;5036574;28;20185;-74
2022/08/23 06:40:22;;;;;;;12.23;7.47;;;;;;;;;;5033085;28;20273;-74
2022/08/23 06:42:48;;;;;;;15.88;9.77;;;;;;;;;;5037499;28;20201;-75
2022/08/23 06:45:13;;;;;;;12.32;8.02;;;;;;;;;;5035755;28;20616;-74
2022/08/23 06:47:39;;;;;;;9.13;7.45;;;;;;;;;;5040225;28;20193;-74
2022/08/23 06:50:04;;;;;;;11.70;7.32;;;;;;;;;;5037866;28;20565;-74
2022/08/23 06:52:29;;;;;;;10.75;7.25;;;;;;;;;;5029226;28;20193;-74
2022/08/23 06:54:54;;;;;;;7.33;5.73;;;;;;;;;;5036257;28;20240;-74
2022/08/23 06:57:19;;;;;;;13.15;7.43;;;;;;;;;;5035086;28;20454;-73
2022/08/23 06:59:45;;;;;;;10.95;6.20;;;;;;;;;;5017357;28;20187;-74
2022/08/23 07:02:13;;;;;;;16.73;7.53;;;;;;;;;;5020093;28;20274;-75
2022/08/23 07:04:38;;;;;;;11.93;6.82;;;;;;;;;;5027203;28;20425;-74
2022/08/23 07:07:04;;;;;;;13.35;7.93;;;;;;;;;;5032862;28;20281;-73
2022/08/23 07:09:30;;;;;;;11.73;6.57;;;;;;;;;;5029456;28;20178;-73
2022/08/23 07:11:55;;;;;;;12.52;6.90;;;;;;;;;;5032974;28;20221;-73
2022/08/23 07:14:21;;;;;;;9.73;6.78;;;;;;;;;;5029924;28;20654;-73
2022/08/23 07:16:54;;;;;;;9.07;6.10;;;;;;;;;;5033685;28;20190;-73
2022/08/23 07:19:21;;;;;;;10.30;6.18;;;;;;;;;;5030817;28;20645;-73
2022/08/23 07:21:47;;;;;;;10.25;6.75;;;;;;;;;;5033699;28;20277;-72
2022/08/23 07:24:12;;;;;;;8.25;6.78;;;;;;;;;;5028342;28;20270;-72
2022/08/23 07:26:38;;;;;;;12.30;6.97;;;;;;;;;;5030770;28;20193;-76
2022/08/23 07:29:04;;;;;;;12.45;6.78;;;;;;;;;;5031959;28;20170;-74
2022/08/23 07:31:31;;;;;;;10.52;7.13;;;;;;;;;;5018481;28;20212;-74
2022/08/23 07:33:57;;;;;;;8.57;6.78;;;;;;;;;;5023933;28;20588;-73
2022/08/23 07:36:23;;;;;;;8.68;6.97;;;;;;;;;;5032251;28;20179;-73
2022/08/23 07:38:48;;;;;;;12.27;6.80;;;;;;;;;;5032006;28;20727;-73
2022/08/23 07:41:15;;;;;;;18.17;8.30;;;;;;;;;;5024157;28;20230;-73
2022/08/23 07:43:40;;;;;;;14.38;7.03;;;;;;;;;;5030590;28;20798;-73
2022/08/23 07:46:05;;;;;;;11.57;7.03;;;;;;;;;;5028829;28;20186;-73
2022/08/23 07:48:31;;;;;;;11.20;6.45;;;;;;;;;;5030446;28;20648;-73
2022/08/23 07:50:58;;;;;;;11.07;7.10;;;;;;;;;;5027424;28;20194;-73
2022/08/23 07:53:24;;;;;;;11.75;7.63;;;;;;;;;;5026802;28;20182;-73
2022/08/23 07:55:49;;;;;;;10.82;6.93;;;;;;;;;;5024136;28;20664;-72
2022/08/23 07:58:15;;;;;;;11.00;7.22;;;;;;;;;;5027358;28;20253;-72
2022/08/23 08:00:40;;;;;;;12.75;7.65;;;;;;;;;;5025358;28;20209;-73
2022/08/23 08:03:05;;;;;;;13.98;7.35;;;;;;;;;;5028375;28;20206;-73
2022/08/23 08:05:32;;;;;;;11.03;7.77;;;;;;;;;;5033677;28;20182;-73
2022/08/23 08:07:57;;;;;;;11.10;7.30;;;;;;;;;;5039567;28;20396;-73
2022/08/23 08:10:22;;;;;;;10.95;7.07;;;;;;;;;;5030835;28;20298;-73
2022/08/23 08:12:48;;;;;;;13.07;8.50;;;;;;;;;;5040480;28;20260;-73
2022/08/23 08:15:13;;;;;;;12.13;8.32;;;;;;;;;;5029571;28;20320;-73
2022/08/23 08:17:39;;;;;;;14.83;9.53;;;;;;;;;;5030695;28;20174;-73
2022/08/23 08:20:04;;;;;;;9.43;7.63;;;;;;;;;;5030484;28;20468;-73
2022/08/23 08:22:29;;;;;;;11.38;7.78;;;;;;;;;;5027644;28;20225;-74
2022/08/23 08:24:54;;;;;;;13.20;8.00;;;;;;;;;;5030385;28;20178;-74
2022/08/23 08:27:20;;;;;;;10.83;7.27;;;;;;;;;;5028336;28;20218;-73
2022/08/23 08:29:45;;;;;;;11.50;7.50;;;;;;;;;;5028905;28;20182;-73
2022/08/23 08:32:10;;;;;;;10.03;7.87;;;;;;;;;;5028486;28;20217;-72
2022/08/23 08:34:37;;;;;;;12.27;8.00;;;;;;;;;;5028981;28;20463;-72
2022/08/23 08:37:02;;;;;;;9.82;7.38;;;;;;;;;;5034336;28;20174;-73
2022/08/23 08:39:29;;;;;;;11.07;7.03;;;;;;;;;;5032217;28;20229;-73
2022/08/23 08:41:54;;;;;;;14.52;6.03;;;;;;;;;;5032143;28;20839;-73
2022/08/23 08:44:33;;;;;;;10.82;7.22;;;;;;;;;;5026218;28;20689;-74
2022/08/23 08:46:58;;;;;;;13.25;7.88;;;;;;;;;;5022094;28;20174;-73
2022/08/23 08:49:43;;;;;;;12.80;6.80;;;;;;;;;;5030885;28;20174;-73
2022/08/23 08:52:29;;;;;;;11.93;7.32;;;;;;;;;;5025316;28;21157;-79
2022/08/23 08:55:05;;;;;;;13.18;7.10;;;;;;;;;;5025381;28;20185;-73
2022/08/23 08:57:35;;;;;;;10.43;6.78;;;;;;;;;;5030350;28;20181;-72
2022/08/23 09:00:03;;;;;;;11.38;7.75;;;;;;;;;;5031493;28;20252;-73
2022/08/23 09:02:30;;;;;;;9.25;5.88;;;;;;;;;;5025632;28;20774;-73
2022/08/23 09:04:57;;;;;;;14.05;4.97;;;;;;;;;;5031666;28;20293;-73
2022/08/23 09:07:29;;;;;;;5.72;3.25;;;;;;;;;;5030759;28;20257;-73
2022/08/23 09:10:09;;;;;;;6.13;3.17;;;;;;;;;;5030706;28;20608;-73
2022/08/23 09:12:42;;;;;;;6.28;4.18;;;;;;;;;;5031436;28;20177;-73
2022/08/23 09:15:07;;;;;;;8.43;3.75;;;;;;;;;;5034227;28;20272;-73
2022/08/23 09:17:39;;;;;;;8.27;4.10;;;;;;;;;;5029605;28;20268;-73
2022/08/23 09:20:05;;;;;;;10.15;3.65;;;;;;;;;;5028573;28;20683;-73
2022/08/23 09:22:36;;;;;;;7.93;4.07;;;;;;;;;;5026498;28;20224;-73
2022/08/23 09:25:01;;;;;;;6.38;3.90;;;;;;;;;;5028078;28;20182;-73
2022/08/23 09:27:26;;;;;;;5.57;3.80;;;;;;;;;;5032522;28;20265;-73
2022/08/23 09:29:55;;;;;;;7.63;4.45;;;;;;;;;;5027450;28;20426;-74
2022/08/23 09:32:28;;;;;;;6.70;4.68;;;;;;;;;;5030637;28;20177;-73
2022/08/23 09:35:04;;;;;;;9.10;4.35;;;;;;;;;;5028127;28;20181;-73
2022/08/23 09:37:29;;;;;;;6.10;2.88;;;;;;;;;;5031464;28;20188;-73
2022/08/23 09:40:13;;;;;;;5.87;2.63;;;;;;;;;;5034651;28;20177;-73
2022/08/23 09:42:39;;;;;;;7.45;2.35;;;;;;;;;;5027957;28;20866;-73
2022/08/23 09:45:07;;;;;;;3.72;2.28;;;;;;;;;;5030230;28;20202;-73
2022/08/23 09:47:34;;;;;;;8.60;2.90;;;;;;;;;;5031337;28;20180;-73
2022/08/23 09:50:14;;;;;;;7.53;4.50;;;;;;;;;;5029200;28;20240;-73
2022/08/23 09:52:40;;;;;;;7.50;2.78;;;;;;;;;;5029960;28;20239;-72
2022/08/23 09:55:08;;;;;;;6.68;2.70;;;;;;;;;;5028995;28;20177;-73
2022/08/23 09:57:33;;;;;;;5.90;3.15;;;;;;;;;;5043842;28;20635;-72
2022/08/23 10:00:02;;;;;;;8.40;3.70;;;;;;;;;;5030744;28;20205;-73
2022/08/23 10:02:29;;;;;;;4.78;2.75;;;;;;;;;;5027286;28;20194;-73
2022/08/23 10:04:56;;;;;;;9.32;3.13;;;;;;;;;;5028294;28;20296;-72
2022/08/23 10:07:24;;;;;;;7.78;2.88;;;;;;;;;;5036335;28;20204;-74
2022/08/23 10:09:49;;;;;;;7.82;2.85;;;;;;;;;;5032613;28;20184;-73
2022/08/23 10:12:15;;;;;;;6.93;3.17;;;;;;;;;;5030937;28;20190;-74
2022/08/23 10:14:41;;;;;;;8.63;3.00;;;;;;;;;;5036231;28;20196;-74
2022/08/23 10:17:25;;;;;;;6.40;3.08;;;;;;;;;;5035547;28;20555;-74
2022/08/23 10:19:57;;;;;;;7.78;3.22;;;;;;;;;;5031990;28;20189;-75
2022/08/23 10:22:25;;;;;;;8.48;2.78;;;;;;;;;;5029367;28;20652;-74
2022/08/23 10:24:53;;;;;;;4.35;2.25;;;;;;;;;;5033762;28;20244;-74
2022/08/23 10:30:13;;;;;;;3.88;2.50;;;;;;;;;;5030850;28;20203;-73
2022/08/23 10:32:38;;;;;;;4.97;2.05;;;;;;;;;;5034500;28;20273;-74
2022/08/23 10:35:20;;;;;;;8.02;2.28;;;;;;;;;;5036288;28;20268;-72
2022/08/23 10:37:51;;;;;;;3.40;1.60;;;;;;;;;;5030058;28;20181;-73
2022/08/23 10:40:27;;;;;;;3.97;2.25;;;;;;;;;;5029346;28;20574;-73
2022/08/23 10:42:52;;;;;;;3.50;1.40;;;;;;;;;;5030426;28;20193;-72
2022/08/23 10:45:26;;;;;;;5.55;1.52;;;;;;;;;;5031596;28;20180;-72
2022/08/23 10:48:15;;;;;;;5.25;1.80;;;;;;;;;;5032606;28;20184;-73
2022/08/23 10:51:00;;;;;;;5.38;2.08;;;;;;;;;;5027444;28;20205;-73
2022/08/23 10:53:46;;;;;;;3.30;1.80;;;;;;;;;;5033113;28;20553;-73
2022/08/23 10:56:18;;;;;;;4.25;1.30;;;;;;;;;;5030101;28;20209;-73
2022/08/23 10:58:48;;;;;;;4.35;1.73;;;;;;;;;;5027770;28;20201;-73
2022/08/23 11:01:16;;;;;;;2.35;1.20;;;;;;;;;;5038758;23;20286;-69
2022/08/23 11:03:42;;;;;;;6.07;1.50;;;;;;;;;;5004072;28;20210;-68
2022/08/23 11:06:24;;;;;;;4.63;1.90;;;;;;;;;;5005372;28;20181;-68
2022/08/23 11:08:56;;;;;;;4.88;1.73;;;;;;;;;;5007734;28;20547;-68
2022/08/23 11:11:41;;;;;;;7.78;1.92;;;;;;;;;;5007756;28;20257;-67
2022/08/23 11:14:09;;;;;;;5.45;1.50;;;;;;;;;;5012120;28;20175;-68
2022/08/23 11:16:37;;;;;;;4.05;1.70;;;;;;;;;;5007301;28;20175;-68
2022/08/23 11:19:02;;;;;;;7.53;1.90;;;;;;;;;;5009966;28;20262;-69
2022/08/23 11:21:38;;;;;;;5.22;1.60;;;;;;;;;;5010189;28;20349;-69
2022/08/23 11:24:03;;;;;;;3.10;1.40;;;;;;;;;;5009066;28;20617;-69
2022/08/23 11:26:30;;;;;;;4.33;1.53;;;;;;;;;;5011908;28;20675;-69
2022/08/23 11:28:55;;;;;;;8.18;2.08;;;;;;;;;;5007117;28;20308;-69
2022/08/23 11:31:24;;;;;;;4.23;1.70;;;;;;;;;;5010451;28;20334;-68
2022/08/23 11:33:58;;;;;;;7.63;1.80;;;;;;;;;;5008204;28;20197;-69
2022/08/23 11:36:25;;;;;;;2.90;1.73;;;;;;;;;;5011124;28;20256;-68
2022/08/23 11:38:50;;;;;;;3.50;1.70;;;;;;;;;;5008844;28;20194;-69
2022/08/23 11:41:15;;;;;;;5.53;1.27;;;;;;;;;;5006289;28;20666;-68
2022/08/23 11:43:42;;;;;;;5.20;1.97;;;;;;;;;;5009691;28;20832;-68
2022/08/23 11:46:14;;;;;;;3.58;1.70;;;;;;;;;;5012758;28;20260;-68
2022/08/23 11:48:41;;;;;;;5.13;1.77;;;;;;;;;;5010078;28;20174;-68
2022/08/23 11:51:25;;;;;;;4.38;2.30;;;;;;;;;;5009751;28;20559;-68
2022/08/23 11:53:53;;;;;;;7.03;2.25;;;;;;;;;;5006810;28;20178;-69
2022/08/23 11:56:34;;;;;;;3.72;1.83;;;;;;;;;;5011880;28;20175;-68
2022/08/23 11:59:19;;;;;;;8.15;2.95;;;;;;;;;;5009056;28;20175;-70
2022/08/23 12:01:45;;;;;;;6.05;2.00;;;;;;;;;;5002091;28;20214;-69
2022/08/23 12:04:25;;;;;;;5.00;2.28;;;;;;;;;;5006422;28;20203;-69
2022/08/23 12:06:57;;;;;;;6.00;2.67;;;;;;;;;;5003076;28;20178;-68
2022/08/23 12:09:22;;;;;;;8.13;2.97;;;;;;;;;;5020421;28;20199;-68
2022/08/23 12:11:53;;;;;;;6.10;2.67;;;;;;;;;;5015149;28;20190;-68
2022/08/23 12:14:30;;;;;;;4.38;2.13;;;;;;;;;;5010778;28;20414;-69
2022/08/23 12:17:00;;;;;;;3.80;1.98;;;;;;;;;;5011803;28;20181;-69
2022/08/23 12:19:36;;;;;;;4.15;2.10;;;;;;;;;;5006675;28;20186;-68
2022/08/23 12:22:05;;;;;;;5.88;2.53;;;;;;;;;;5005345;28;20205;-68
2022/08/23 12:24:34;;;;;;;4.90;1.92;;;;;;;;;;5013173;28;20182;-69
2022/08/23 12:27:12;;;;;;;5.68;1.98;;;;;;;;;;5007271;28;20193;-68
2022/08/23 12:29:45;;;;;;;5.38;1.83;;;;;;;;;;5008328;28;20213;-69
2022/08/23 12:32:14;;;;;;;4.60;2.05;;;;;;;;;;5014947;28;20194;-69
2022/08/23 12:34:45;;;;;;;4.63;2.13;;;;;;;;;;5007706;28;20257;-69
2022/08/23 12:37:11;;;;;;;5.75;2.42;;;;;;;;;;5006302;28;20181;-68
2022/08/23 12:39:38;;;;;;;4.82;1.80;;;;;;;;;;5000888;28;20237;-69
2022/08/23 12:42:14;;;;;;;8.48;2.28;;;;;;;;;;4991422;28;20555;-69
2022/08/23 12:44:40;;;;;;;4.47;1.58;;;;;;;;;;5002371;28;20174;-69
2022/08/23 12:47:14;;;;;;;7.13;2.25;;;;;;;;;;5009127;28;20189;-68
2022/08/23 12:49:39;;;;;;;5.82;2.15;;;;;;;;;;5012792;28;20183;-69
2022/08/23 12:52:06;;;;;;;5.55;2.30;;;;;;;;;;5006598;28;20264;-69
2022/08/23 12:54:42;;;;;;;3.33;2.30;;;;;;;;;;5006968;28;20543;-69
2022/08/23 12:57:10;;;;;;;7.40;2.45;;;;;;;;;;5010564;28;20678;-69
2022/08/23 12:59:41;;;;;;;4.30;1.98;;;;;;;;;;5001842;28;20178;-69
2022/08/23 13:02:26;;;;;;;7.53;2.50;;;;;;;;;;5003737;28;20241;-68
2022/08/23 13:04:53;;;;;;;17.10;4.05;;;;;;;;;;5012410;28;20232;-69
2022/08/23 13:07:20;;;;;;;9.57;2.53;;;;;;;;;;5012042;28;20178;-68
2022/08/23 13:09:46;;;;;;;15.73;3.03;;;;;;;;;;5010197;28;20178;-68
2022/08/23 13:12:12;;;;;;;6.70;3.30;;;;;;;;;;5011714;28;20191;-68
2022/08/23 13:14:40;;;;;;;6.57;3.40;;;;;;;;;;5006944;28;20183;-69
2022/08/23 13:17:11;;;;;;;5.45;2.88;;;;;;;;;;5008864;28;20175;-68
2022/08/23 13:19:36;;;;;;;5.72;2.63;;;;;;;;;;5004528;28;20178;-68
2022/08/23 13:22:31;;;;;;;5.90;3.23;;;;;;;;;;5010873;28;20203;-68
2022/08/23 13:24:59;;;;;;;5.80;3.00;;;;;;;;;;4987697;28;20277;-68
2022/08/23 13:27:26;;;;;;;7.03;2.45;;;;;;;;;;5008033;28;20644;-68
2022/08/23 13:30:18;;;;;;;6.20;3.10;;;;;;;;;;5008056;28;20171;-68
2022/08/23 13:33:04;;;;;;;4.57;2.92;;;;;;;;;;5018614;28;20194;-69
2022/08/23 13:35:29;;;;;;;6.97;2.50;;;;;;;;;;5003011;28;20222;-68
2022/08/23 13:37:59;;;;;;;6.63;4.35;;;;;;;;;;5014905;28;20209;-68
2022/08/23 13:40:26;;;;;;;5.75;3.13;;;;;;;;;;5028158;28;20512;-68
2022/08/23 13:42:56;;;;;;;7.28;4.53;;;;;;;;;;5009096;28;20202;-68
2022/08/23 13:45:26;;;;;;;7.47;3.70;;;;;;;;;;5008186;28;20356;-68
2022/08/23 13:48:00;;;;;;;6.35;3.20;;;;;;;;;;5008850;28;20178;-68
2022/08/23 13:50:27;;;;;;;6.13;3.10;;;;;;;;;;5011794;28;20217;-68
2022/08/23 13:52:53;;;;;;;7.28;3.28;;;;;;;;;;5013005;28;20198;-68
2022/08/23 13:55:18;;;;;;;5.85;3.10;;;;;;;;;;5010128;28;20190;-68
2022/08/23 13:57:43;;;;;;;3.78;2.72;;;;;;;;;;5011344;28;20178;-68
2022/08/23 14:00:09;;;;;;;4.67;2.10;;;;;;;;;;5005107;28;20174;-68
2022/08/23 14:02:34;;;;;;;5.60;2.50;;;;;;;;;;5011229;28;20246;-68
2022/08/23 14:05:00;;;;;;;5.53;1.90;;;;;;;;;;5012084;28;20217;-68
2022/08/23 14:07:25;;;;;;;7.97;2.38;;;;;;;;;;5011754;28;20178;-68
2022/08/23 14:09:50;;;;;;;5.75;2.30;;;;;;;;;;5012457;28;20189;-68
2022/08/23 14:12:17;;;;;;;4.60;2.35;;;;;;;;;;5011980;28;20199;-68
2022/08/23 14:14:42;;;;;;;5.97;2.53;;;;;;;;;;5003643;28;20178;-68
2022/08/23 14:17:08;;;;;;;6.80;2.65;;;;;;;;;;5014347;28;20186;-70
2022/08/23 14:19:34;;;;;;;5.10;2.08;;;;;;;;;;5014096;28;20182;-68
2022/08/23 14:21:59;;;;;;;6.05;2.67;;;;;;;;;;5010615;28;20751;-68
2022/08/23 14:24:25;;;;;;;4.83;2.47;;;;;;;;;;5011513;28;20225;-68
2022/08/23 14:26:51;;;;;;;5.63;2.50;;;;;;;;;;5011990;28;20897;-68
2022/08/23 14:29:17;;;;;;;6.05;1.80;;;;;;;;;;5010427;28;20190;-69
2022/08/23 14:31:42;;;;;;;8.82;2.78;;;;;;;;;;5008146;28;20597;-69
2022/08/23 14:34:08;;;;;;;8.33;1.47;;;;;;;;;;5015443;28;20222;-68
2022/08/23 14:36:33;;;;;;;3.25;1.42;;;;;;;;;;5010004;28;20670;-68
2022/08/23 14:38:58;;;;;;;3.60;1.30;;;;;;;;;;5016933;28;20174;-68
2022/08/23 14:41:25;;;;;;;5.63;2.20;;;;;;;;;;5010709;28;20214;-68
2022/08/23 14:43:51;;;;;;;5.63;1.67;;;;;;;;;;5013449;28;20293;-69
2022/08/23 14:46:17;;;;;;;4.82;1.65;;;;;;;;;;5013527;28;20209;-68
2022/08/23 14:48:42;;;;;;;3.70;1.67;;;;;;;;;;5010168;28;20642;-69
2022/08/23 14:51:16;;;;;;;5.23;1.40;;;;;;;;;;5008521;28;20199;-69
2022/08/23 14:53:41;;;;;;;1.65;1.17;;;;;;;;;;5008287;28;20436;-69